< < Back
Terminal Aerodrome Forecast


Current Version              Previous Versions:   1  2  3  4  5  6  7  8  9  

Terminal Aerodrome Forecast

672
FTUS42 KMLB 252325
TAFMCO
TAF
KMCO 252325Z 2600/2624 08009KT P6SM FEW070
     FM260200 VRB03KT P6SM SKC
     FM261500 06010KT P6SM SCT050=

Latest METAR

818
SAUS70 KWBC 260600 RRK
MTRMCO
METAR KMCO 260553Z 03005KT 10SM CLR 21/16 A3019 RMK AO2 SLP220 T02110156
10261 20206 58003


USA.gov is the U.S. government's official web portal to all federal, state and local government web resources and services.